Time;durP1;ratioP1;P1;durP2;ratioP2;P2;SDS_P1;SDS_P2;PMS_P1;PMS_P2;Temp;Humidity;BMP_temperature;BMP_pressure;BME280_temperature;BME280_humidity;BME280_pressure;Samples;Min_cycle;Max_cycle;Signal;HPM_P1;HPM_P2
2023/10/12 00:01:57;;;;;;;13.93;3.42;;;13.10;99.90;;;;;;5059716;28;20040;-63
2023/10/12 00:04:41;;;;;;;8.63;3.10;;;13.10;99.90;;;;;;5047443;28;20041;-63
2023/10/12 00:09:39;;;;;;;23.42;4.00;;;13.10;99.90;;;;;;5047539;28;20377;-64
2023/10/12 00:12:08;;;;;;;15.02;4.20;;;13.10;99.90;;;;;;5047393;28;20120;-64
2023/10/12 00:14:34;;;;;;;12.88;3.08;;;13.10;99.90;;;;;;5063590;28;20048;-63
2023/10/12 00:17:00;;;;;;;11.05;2.42;;;13.10;99.90;;;;;;5046908;28;20055;-63
2023/10/12 00:19:26;;;;;;;5.00;1.70;;;13.20;99.90;;;;;;5047001;28;20041;-65
2023/10/12 00:21:59;;;;;;;17.30;1.75;;;13.10;99.90;;;;;;5046479;28;20516;-64
2023/10/12 00:24:26;;;;;;;12.48;2.10;;;13.00;99.90;;;;;;5049373;28;20084;-80
2023/10/12 00:26:53;;;;;;;7.30;1.65;;;13.10;99.90;;;;;;5046613;28;20056;-63
2023/10/12 00:29:19;;;;;;;9.82;2.35;;;13.10;99.90;;;;;;5047298;28;20502;-63
2023/10/12 00:31:49;;;;;;;12.18;3.22;;;13.00;99.90;;;;;;5047669;28;20069;-63
2023/10/12 00:34:15;;;;;;;;;;;13.00;99.90;;;;;;5077318;28;20052;-63
2023/10/12 00:36:45;;;;;;;13.43;2.33;;;13.00;99.90;;;;;;5080201;28;19983;-63
2023/10/12 00:39:11;;;;;;;17.30;2.30;;;13.00;99.90;;;;;;5046680;28;20491;-63
2023/10/12 00:41:43;;;;;;;17.13;4.55;;;13.00;99.90;;;;;;5048730;28;20051;-83
2023/10/12 00:44:10;;;;;;;16.20;3.53;;;12.90;99.90;;;;;;5052754;28;20049;-63
2023/10/12 00:51:52;;;;;;;15.93;2.00;;;13.00;99.90;;;;;;5046718;28;20402;-64
2023/10/12 00:54:41;;;;;;;11.52;2.38;;;13.00;99.90;;;;;;5076216;28;20061;-64
2023/10/12 00:57:09;;;;;;;20.07;2.40;;;12.90;99.90;;;;;;5044545;28;20516;-63
2023/10/12 00:59:36;;;;;;;12.57;2.55;;;13.00;99.90;;;;;;5047803;28;20131;-63
2023/10/12 01:02:08;;;;;;;10.18;1.65;;;13.00;99.90;;;;;;5046061;28;20384;-63
2023/10/12 01:04:35;;;;;;;17.98;1.98;;;12.90;99.90;;;;;;5049133;28;20047;-63
2023/10/12 01:07:02;;;;;;;11.63;2.20;;;12.90;99.90;;;;;;5053815;28;20077;-63
2023/10/12 01:09:54;;;;;;;11.95;1.42;;;12.90;99.90;;;;;;5046028;28;20045;-76
2023/10/12 01:12:14;;;;;;;11.48;1.95;;;12.90;99.90;;;;;;5047228;28;20445;-80
2023/10/12 01:14:43;;;;;;;11.43;1.33;;;12.80;99.90;;;;;;5029294;28;20052;-81
2023/10/12 01:17:29;;;;;;;11.30;1.77;;;12.80;99.90;;;;;;5054534;28;20880;-63
2023/10/12 01:19:55;;;;;;;5.60;1.60;;;12.80;99.90;;;;;;5048908;28;20094;-63
2023/10/12 01:22:31;;;;;;;10.82;2.20;;;12.80;99.90;;;;;;5058759;28;20048;-63
2023/10/12 01:24:59;;;;;;;12.50;2.38;;;12.80;99.90;;;;;;5055168;28;20045;-63
2023/10/12 01:27:26;;;;;;;12.52;2.35;;;12.70;99.90;;;;;;5057818;28;20053;-63
2023/10/12 01:29:53;;;;;;;9.63;2.15;;;12.70;99.90;;;;;;5059607;28;20487;-63
2023/10/12 01:34:52;;;;;;;16.67;3.47;;;12.70;99.90;;;;;;5045407;28;20127;-64
2023/10/12 01:37:22;;;;;;;14.23;2.17;;;12.60;99.90;;;;;;5062175;28;20059;-63
2023/10/12 01:40:08;;;;;;;13.50;3.15;;;12.60;99.90;;;;;;5051564;28;20116;-85
2023/10/12 01:45:18;;;;;;;12.23;1.92;;;12.60;99.90;;;;;;5052222;28;20052;-64
2023/10/12 01:47:54;;;;;;;10.48;2.33;;;12.60;99.90;;;;;;5050616;28;20057;-63
2023/10/12 01:50:20;;;;;;;13.27;3.42;;;12.60;99.90;;;;;;5050439;28;20120;-64
2023/10/12 01:52:47;;;;;;;18.23;4.65;;;12.60;99.90;;;;;;5050723;28;20109;-63
2023/10/12 01:55:20;;;;;;;26.52;7.65;;;12.50;99.90;;;;;;5055875;28;20052;-64
2023/10/12 01:57:53;;;;;;;16.13;5.90;;;12.60;99.90;;;;;;5053797;28;20045;-64
2023/10/12 02:00:28;;;;;;;24.58;4.72;;;12.60;99.90;;;;;;5083158;28;20044;-63
2023/10/12 02:03:12;;;;;;;14.48;2.88;;;12.60;99.90;;;;;;5050911;28;20099;-68
2023/10/12 02:05:46;;;;;;;8.52;1.67;;;12.60;99.90;;;;;;5062301;28;20324;-68
2023/10/12 02:08:16;;;;;;;9.27;1.52;;;12.60;99.90;;;;;;5051034;28;20033;-64
2023/10/12 02:10:54;;;;;;;6.28;1.05;;;12.60;99.90;;;;;;5049357;28;20045;-63
2023/10/12 02:13:21;;;;;;;13.25;1.75;;;12.60;99.90;;;;;;5050229;28;20056;-63
2023/10/12 02:15:50;;;;;;;8.13;1.13;;;12.60;99.90;;;;;;5051930;28;20120;-64
2023/10/12 02:18:18;;;;;;;12.50;1.73;;;12.60;99.90;;;;;;5047275;28;20541;-64
2023/10/12 02:21:06;;;;;;;8.27;2.00;;;12.60;99.90;;;;;;5050648;28;20418;-63
2023/10/12 02:23:36;;;;;;;6.88;1.40;;;12.60;99.90;;;;;;5048935;28;20102;-64
2023/10/12 02:26:13;;;;;;;9.00;1.60;;;12.50;99.90;;;;;;5051179;28;20048;-64
2023/10/12 02:28:38;;;;;;;9.05;1.65;;;12.50;99.90;;;;;;5050629;28;20045;-81
2023/10/12 02:31:05;;;;;;;10.15;1.50;;;12.60;99.90;;;;;;5047734;28;20889;-64
2023/10/12 02:33:36;;;;;;;5.60;1.08;;;12.50;99.90;;;;;;5049540;28;20111;-64
2023/10/12 02:36:06;;;;;;;8.52;1.67;;;12.50;99.90;;;;;;5076232;28;20064;-64
2023/10/12 02:38:34;;;;;;;5.28;1.05;;;12.50;99.90;;;;;;5049576;28;20422;-64
2023/10/12 02:40:59;;;;;;;9.30;1.52;;;12.50;99.90;;;;;;5048980;28;20120;-64
2023/10/12 02:43:31;;;;;;;6.75;1.55;;;12.50;99.90;;;;;;5049897;28;20566;-85
2023/10/12 02:46:05;;;;;;;9.07;1.30;;;12.50;99.90;;;;;;5050640;28;20055;-64
2023/10/12 02:48:36;;;;;;;11.82;1.50;;;12.40;99.90;;;;;;5046691;28;20063;-64
2023/10/12 02:51:06;;;;;;;6.32;1.13;;;12.50;99.90;;;;;;5049661;28;20443;-69
2023/10/12 02:53:34;;;;;;;8.98;1.30;;;12.40;99.90;;;;;;5079397;28;20560;-64
2023/10/12 02:56:01;;;;;;;5.93;1.17;;;12.40;99.90;;;;;;5053038;28;20119;-64
2023/10/12 02:58:28;;;;;;;3.75;1.10;;;12.40;99.90;;;;;;5041324;28;20133;-64
2023/10/12 03:00:56;;;;;;;4.20;1.33;;;12.40;99.90;;;;;;5048566;28;20107;-64
2023/10/12 03:03:27;;;;;;;5.53;1.33;;;12.40;99.90;;;;;;5049391;28;20049;-63
2023/10/12 03:05:58;;;;;;;6.38;1.02;;;12.30;99.90;;;;;;5063626;28;20048;-64
2023/10/12 03:08:30;;;;;;;7.97;1.58;;;12.30;99.90;;;;;;5049336;28;20041;-66
2023/10/12 03:13:34;;;;;;;8.57;1.30;;;12.30;99.90;;;;;;5049581;28;20053;-65
2023/10/12 03:16:13;;;;;;;8.52;1.45;;;12.20;99.90;;;;;;5047615;28;20084;-64
2023/10/12 03:18:40;;;;;;;5.50;1.45;;;12.30;99.90;;;;;;5047240;28;20080;-64
2023/10/12 03:21:12;;;;;;;14.88;1.77;;;12.30;99.90;;;;;;5080759;28;20049;-64
2023/10/12 03:23:41;;;;;;;7.78;1.60;;;12.30;99.90;;;;;;5048190;28;20055;-64
2023/10/12 03:26:28;;;;;;;6.30;1.25;;;12.20;99.90;;;;;;5048064;28;20044;-64
2023/10/12 03:37:01;;;;;;;7.20;1.33;;;12.20;99.90;;;;;;5048293;28;20048;-64
2023/10/12 03:39:28;;;;;;;12.48;2.35;;;12.20;99.90;;;;;;5080714;28;20041;-85
2023/10/12 03:41:55;;;;;;;8.75;1.30;;;12.20;99.90;;;;;;5048058;28;20076;-64
2023/10/12 03:44:36;;;;;;;17.55;1.50;;;12.10;99.90;;;;;;5047013;28;20418;-64
2023/10/12 03:47:14;;;;;;;6.55;1.38;;;12.10;99.90;;;;;;5054708;28;20116;-64
2023/10/12 03:49:57;;;;;;;11.38;1.98;;;12.20;99.90;;;;;;5039335;28;20096;-64
2023/10/12 03:52:34;;;;;;;7.18;1.10;;;12.10;99.90;;;;;;5048995;28;20041;-63
2023/10/12 04:02:25;;;;;;;5.75;1.45;;;12.00;99.90;;;;;;5078314;28;20124;-64
2023/10/12 04:05:11;;;;;;;10.27;1.23;;;12.10;99.90;;;;;;5050483;28;20059;-64
2023/10/12 04:08:00;;;;;;;15.38;1.55;;;12.00;99.90;;;;;;5033880;28;20491;-64
2023/10/12 04:18:40;;;;;;;6.93;1.33;;;12.00;99.90;;;;;;5080098;28;20057;-64
2023/10/12 04:21:07;;;;;;;6.85;1.08;;;12.00;99.90;;;;;;5047661;28;20073;-63
2023/10/12 04:28:57;;;;;;;10.40;1.30;;;11.90;99.90;;;;;;5030798;28;20427;-63
2023/10/12 04:34:06;;;;;;;9.00;1.45;;;11.90;99.90;;;;;;5047759;28;20052;-79
2023/10/12 04:39:24;;;;;;;10.73;1.63;;;11.90;99.90;;;;;;5055553;28;20060;-64
2023/10/12 04:42:04;;;;;;;6.90;1.63;;;11.80;99.90;;;;;;5045432;28;20050;-81
2023/10/12 04:47:04;;;;;;;4.85;1.58;;;11.80;99.90;;;;;;5054209;28;20041;-64
2023/10/12 04:57:16;;;;;;;8.93;1.50;;;11.60;99.90;;;;;;5053821;28;20419;-79
2023/10/12 05:00:00;;;;;;;4.63;0.95;;;11.70;99.90;;;;;;5037017;28;20053;-64
2023/10/12 05:02:33;;;;;;;8.32;1.15;;;11.70;99.90;;;;;;5046529;28;20044;-64
2023/10/12 05:05:14;;;;;;;7.03;1.23;;;11.60;99.90;;;;;;5047781;28;20045;-64
2023/10/12 05:07:59;;;;;;;6.78;1.42;;;11.60;99.90;;;;;;5046284;28;20418;-64
2023/10/12 05:10:31;;;;;;;5.78;0.95;;;11.60;99.90;;;;;;5049567;28;20044;-64
2023/10/12 05:13:04;;;;;;;7.43;1.38;;;11.60;99.90;;;;;;5049685;28;20037;-79
2023/10/12 05:15:41;;;;;;;8.18;1.23;;;11.60;99.90;;;;;;5044891;28;20475;-77
2023/10/12 05:18:08;;;;;;;3.00;0.85;;;11.50;99.90;;;;;;5047678;28;20095;-64
2023/10/12 05:20:34;;;;;;;7.03;1.52;;;11.50;99.90;;;;;;5045456;28;20048;-64
2023/10/12 05:23:02;;;;;;;11.68;1.33;;;11.50;99.90;;;;;;5048491;28;20147;-64
2023/10/12 05:25:38;;;;;;;14.00;1.55;;;11.50;99.90;;;;;;5044345;28;20056;-84
2023/10/12 05:28:14;;;;;;;7.45;1.63;;;11.40;99.90;;;;;;5047070;28;20033;-64
2023/10/12 05:36:08;;;;;;;6.60;1.35;;;11.40;99.90;;;;;;5047943;28;20060;-64
2023/10/12 05:38:49;;;;;;;8.88;1.02;;;11.40;99.90;;;;;;5046053;28;20453;-64
2023/10/12 05:41:23;;;;;;;8.85;1.00;;;11.40;99.90;;;;;;5050646;28;20039;-64
2023/10/12 05:43:49;;;;;;;6.45;1.00;;;11.30;99.90;;;;;;5032668;28;20586;-83
2023/10/12 05:46:14;;;;;;;1.85;0.88;;;11.20;99.90;;;;;;5045947;28;20037;-64
2023/10/12 05:48:51;;;;;;;4.25;1.92;;;11.20;99.90;;;;;;5079250;28;20059;-64
2023/10/12 05:51:19;;;;;;;7.97;1.20;;;11.10;99.90;;;;;;5046891;28;20090;-64
2023/10/12 05:53:45;;;;;;;5.57;1.13;;;11.10;99.90;;;;;;5045773;28;20394;-64
2023/10/12 05:56:12;;;;;;;4.40;1.10;;;11.10;99.90;;;;;;5046658;28;20090;-64
2023/10/12 05:58:41;;;;;;;4.05;0.98;;;11.00;99.90;;;;;;5046114;28;20095;-64
2023/10/12 06:01:10;;;;;;;5.78;1.10;;;11.00;99.90;;;;;;5047514;28;20049;-64
2023/10/12 06:03:38;;;;;;;12.05;1.10;;;11.00;99.90;;;;;;5057627;28;20041;-64
2023/10/12 06:06:06;;;;;;;12.02;1.63;;;11.00;99.90;;;;;;5047042;28;20045;-65
2023/10/12 06:08:34;;;;;;;5.85;1.30;;;10.80;99.90;;;;;;5045891;28;20055;-64
2023/10/12 06:11:01;;;;;;;6.85;0.77;;;10.90;99.90;;;;;;5047344;28;20380;-64
2023/10/12 06:13:32;;;;;;;5.03;1.05;;;10.80;99.90;;;;;;5046916;28;20075;-84
2023/10/12 06:15:58;;;;;;;6.70;0.73;;;10.90;99.90;;;;;;5046093;28;20049;-63
2023/10/12 06:18:30;;;;;;;6.05;1.75;;;10.80;99.90;;;;;;5047179;28;20049;-64
2023/10/12 06:21:06;;;;;;;5.80;1.50;;;10.80;99.90;;;;;;5045310;28;20089;-63
2023/10/12 06:23:31;;;;;;;9.75;1.40;;;10.80;99.90;;;;;;5047392;28;20048;-63
2023/10/12 06:25:57;;;;;;;2.78;0.93;;;10.80;99.90;;;;;;5045924;28;20438;-63
2023/10/12 06:28:23;;;;;;;7.03;0.70;;;10.80;99.90;;;;;;5050406;28;20052;-63
2023/10/12 06:30:50;;;;;;;3.80;0.80;;;10.80;99.90;;;;;;5049497;28;20103;-63
2023/10/12 06:33:17;;;;;;;6.70;0.90;;;10.80;99.90;;;;;;5050524;28;20048;-64
2023/10/12 06:35:59;;;;;;;4.03;0.70;;;10.80;99.90;;;;;;5060503;28;20072;-65
2023/10/12 06:46:48;;;;;;;6.63;1.13;;;10.80;99.90;;;;;;5048496;28;20045;-63
2023/10/12 06:49:28;;;;;;;11.30;1.17;;;10.90;99.90;;;;;;5050317;28;20091;-62
2023/10/12 06:52:01;;;;;;;4.90;1.00;;;11.00;99.90;;;;;;5048495;28;20112;-62
2023/10/12 06:54:49;;;;;;;8.30;1.80;;;11.10;99.90;;;;;;5055218;28;20119;-62
2023/10/12 06:59:52;;;;;;;2.28;1.02;;;11.30;99.90;;;;;;5054752;28;20055;-62
2023/10/12 07:02:27;;;;;;;7.07;1.60;;;11.20;99.90;;;;;;5080859;28;20397;-66
2023/10/12 07:05:01;;;;;;;9.23;1.73;;;11.30;99.90;;;;;;5048524;28;20098;-62
2023/10/12 07:07:41;;;;;;;15.40;1.02;;;11.30;99.90;;;;;;5050194;28;20124;-62
2023/10/12 07:12:41;;;;;;;5.93;1.00;;;11.40;99.90;;;;;;5076120;28;20057;-63
2023/10/12 07:15:22;;;;;;;7.95;1.20;;;11.50;99.90;;;;;;5050058;28;20049;-62
2023/10/12 07:17:51;;;;;;;10.48;1.38;;;11.50;99.90;;;;;;5047689;28;20080;-62
2023/10/12 07:22:57;;;;;;;5.65;1.90;;;11.70;99.90;;;;;;5050490;28;20119;-64
2023/10/12 07:25:26;;;;;;;6.32;0.95;;;11.80;99.90;;;;;;5048724;28;20041;-64
2023/10/12 07:28:01;;;;;;;14.32;1.40;;;11.90;99.90;;;;;;5048711;28;20048;-63
2023/10/12 07:30:33;;;;;;;6.95;1.30;;;12.00;99.90;;;;;;5048187;28;20207;-63
2023/10/12 07:33:07;;;;;;;10.18;1.10;;;12.10;99.90;;;;;;5048660;28;20045;-63
2023/10/12 07:35:38;;;;;;;10.32;1.10;;;12.20;99.90;;;;;;5038871;28;20048;-63
2023/10/12 07:38:12;;;;;;;5.35;0.95;;;12.30;99.90;;;;;;5048859;28;20041;-64
2023/10/12 07:43:38;;;;;;;7.55;1.17;;;12.70;99.90;;;;;;5049765;28;20048;-63
2023/10/12 07:46:25;;;;;;;7.55;1.20;;;12.90;99.90;;;;;;5063688;28;20048;-63
2023/10/12 07:48:51;;;;;;;5.47;1.10;;;13.00;99.90;;;;;;5018171;28;20131;-63
2023/10/12 07:51:26;;;;;;;7.75;1.33;;;13.20;99.90;;;;;;5053611;28;20119;-68
2023/10/12 07:54:00;;;;;;;15.00;1.90;;;13.30;99.90;;;;;;5055186;28;20387;-63
2023/10/12 07:56:33;;;;;;;9.45;1.45;;;13.40;99.90;;;;;;5055264;28;20383;-63
2023/10/12 07:59:00;;;;;;;5.10;1.00;;;13.50;99.90;;;;;;5058451;28;20838;-63
2023/10/12 08:03:53;;;;;;;10.13;1.60;;;13.60;99.90;;;;;;5059888;28;20049;-68
2023/10/12 08:09:47;;;;;;;8.10;1.30;;;13.70;99.90;;;;;;5059620;28;20053;-63
2023/10/12 08:11:49;;;;;;;8.82;0.98;;;13.70;99.90;;;;;;5053341;28;20446;-67
2023/10/12 08:17:25;;;;;;;5.78;1.05;;;13.80;99.90;;;;;;5055027;28;20501;-63
2023/10/12 08:19:45;;;;;;;3.42;1.05;;;13.90;99.90;;;;;;5049770;28;20068;-63
2023/10/12 08:22:26;;;;;;;8.90;1.00;;;14.00;99.90;;;;;;5065041;28;20048;-63
2023/10/12 08:25:04;;;;;;;5.03;1.08;;;14.10;99.90;;;;;;5049791;28;20080;-63
2023/10/12 08:27:43;;;;;;;5.68;0.98;;;14.20;99.90;;;;;;5056946;28;20047;-63
2023/10/12 08:30:13;;;;;;;8.82;1.20;;;14.30;99.90;;;;;;5035624;28;20077;-63
2023/10/12 08:32:55;;;;;;;7.18;1.23;;;14.40;99.90;;;;;;5050601;28;20041;-63
2023/10/12 08:35:55;;;;;;;7.20;0.80;;;14.50;99.90;;;;;;5046699;28;20140;-63
2023/10/12 08:38:32;;;;;;;5.28;1.02;;;14.50;99.90;;;;;;5051225;28;20060;-81
2023/10/12 08:43:52;;;;;;;10.82;1.58;;;14.60;99.90;;;;;;5046663;28;20390;-81
2023/10/12 08:46:41;;;;;;;5.53;1.33;;;14.60;99.90;;;;;;5050030;28;20048;-63
2023/10/12 08:52:15;;;;;;;10.90;1.40;;;14.50;99.90;;;;;;5049888;28;20045;-80
2023/10/12 08:54:43;;;;;;;11.40;1.80;;;14.50;99.90;;;;;;5072093;28;20132;-63
2023/10/12 08:58:01;;;;;;;4.53;1.00;;;14.50;99.90;;;;;;5045776;28;20098;-64
2023/10/12 09:03:15;;;;;;;13.10;1.25;;;14.50;99.90;;;;;;5058062;28;20049;-64
2023/10/12 09:05:41;;;;;;;8.15;1.63;;;14.40;99.90;;;;;;5055651;28;20502;-64
2023/10/12 09:10:49;;;;;;;6.70;1.25;;;14.40;99.90;;;;;;5048039;28;20088;-63
2023/10/12 09:13:23;;;;;;;4.95;0.80;;;14.40;99.90;;;;;;5046452;28;20622;-64
2023/10/12 09:15:56;;;;;;;3.65;0.85;;;14.40;99.90;;;;;;5079925;28;20045;-63
2023/10/12 09:18:43;;;;;;;7.30;1.08;;;14.30;99.90;;;;;;5038860;28;20082;-83
2023/10/12 09:23:58;;;;;;;8.35;1.58;;;14.40;99.90;;;;;;5077022;28;20057;-64
2023/10/12 09:26:34;;;;;;;10.45;1.38;;;14.30;99.90;;;;;;5078345;28;20076;-64
2023/10/12 09:36:55;;;;;;;9.43;1.45;;;14.50;99.90;;;;;;5048221;28;20051;-64
2023/10/12 09:39:27;;;;;;;5.13;1.17;;;14.50;99.90;;;;;;5046459;28;20146;-64
2023/10/12 09:41:59;;;;;;;9.65;1.17;;;14.50;99.90;;;;;;5048167;28;20049;-64
2023/10/12 09:44:37;;;;;;;6.47;1.10;;;14.50;99.90;;;;;;5044442;28;20056;-64
2023/10/12 09:47:26;;;;;;;7.50;1.08;;;14.60;99.90;;;;;;5046809;28;20040;-63
2023/10/12 09:49:56;;;;;;;9.35;1.40;;;14.70;99.90;;;;;;5058321;28;20056;-62
2023/10/12 09:52:24;;;;;;;6.60;1.02;;;14.70;99.90;;;;;;5047571;28;20037;-62
2023/10/12 09:55:06;;;;;;;5.40;1.05;;;14.80;99.90;;;;;;5078184;28;20056;-62
2023/10/12 09:57:36;;;;;;;7.03;1.40;;;14.80;99.90;;;;;;5043959;28;20049;-62
2023/10/12 10:03:03;;;;;;;5.78;0.90;;;14.90;99.90;;;;;;5042417;28;20044;-63
2023/10/12 10:05:54;;;;;;;5.47;0.90;;;14.90;99.90;;;;;;5057789;28;20049;-63
2023/10/12 10:08:26;;;;;;;10.55;1.15;;;14.90;99.90;;;;;;5081914;28;20069;-62
2023/10/12 10:11:11;;;;;;;3.45;0.98;;;14.90;99.90;;;;;;5049628;28;20045;-62
2023/10/12 10:13:49;;;;;;;7.63;1.60;;;14.90;99.90;;;;;;5081929;28;20045;-82
2023/10/12 10:16:17;;;;;;;9.82;1.23;;;15.00;99.90;;;;;;5060690;28;20124;-62
2023/10/12 10:19:13;;;;;;;10.00;1.50;;;14.90;99.90;;;;;;5062625;28;20052;-62
2023/10/12 10:22:06;;;;;;;2.60;0.90;;;14.90;99.90;;;;;;5045308;28;20080;-62
2023/10/12 10:24:45;;;;;;;6.70;0.98;;;14.80;99.90;;;;;;5039759;28;20438;-63
2023/10/12 10:27:13;;;;;;;9.70;1.20;;;14.80;99.90;;;;;;5053522;28;20060;-63
2023/10/12 10:30:18;;;;;;;10.13;1.83;;;14.80;99.90;;;;;;5066991;28;20290;-69
2023/10/12 10:33:03;;;;;;;6.28;1.15;;;14.80;99.90;;;;;;5050677;28;20436;-62
2023/10/12 10:35:58;;;;;;;3.47;2.03;;;14.90;99.90;;;;;;5043366;28;20048;-63
2023/10/12 10:38:32;;;;;;;3.75;1.00;;;14.90;99.90;;;;;;5046347;28;20560;-62
2023/10/12 10:41:08;;;;;;;5.15;1.00;;;14.90;99.90;;;;;;5047711;28;20396;-63
2023/10/12 10:43:39;;;;;;;3.83;0.75;;;15.00;99.90;;;;;;5050382;28;20072;-63
2023/10/12 10:46:11;;;;;;;12.23;1.38;;;15.00;99.90;;;;;;5048442;28;20045;-62
2023/10/12 10:48:38;;;;;;;7.50;1.33;;;15.00;99.90;;;;;;5049605;28;20045;-62
2023/10/12 10:51:11;;;;;;;7.30;0.98;;;15.00;99.90;;;;;;5050085;28;20057;-63
2023/10/12 10:53:39;;;;;;;9.15;1.17;;;15.10;99.90;;;;;;5051683;28;20482;-63
2023/10/12 10:56:15;;;;;;;9.02;1.45;;;15.20;99.90;;;;;;5059536;28;20116;-62
2023/10/12 10:58:45;;;;;;;4.45;1.10;;;15.30;99.90;;;;;;5064473;28;20097;-62
2023/10/12 11:01:15;;;;;;;3.67;1.48;;;15.40;99.60;;;;;;5058462;28;20052;-62
2023/10/12 11:03:43;;;;;;;7.25;1.33;;;15.50;99.90;;;;;;5047966;28;20075;-77
2023/10/12 11:06:21;;;;;;;10.57;1.13;;;15.60;87.90;;;;;;5058635;28;20099;-62
2023/10/12 11:09:07;;;;;;;8.90;1.27;;;15.70;93.70;;;;;;5048235;28;20048;-62
2023/10/12 11:11:44;;;;;;;4.70;1.30;;;15.80;98.60;;;;;;5036848;28;20368;-63
2023/10/12 11:14:14;;;;;;;8.32;1.20;;;16.00;98.90;;;;;;5049635;28;20072;-76
2023/10/12 11:16:45;;;;;;;;;;;16.10;90.10;;;;;;5049731;28;20522;-63
2023/10/12 11:19:12;;;;;;;8.38;2.03;;;16.10;50.70;;;;;;5039346;28;19924;-63
2023/10/12 11:21:53;;;;;;;7.50;1.08;;;16.00;19.20;;;;;;5042506;28;20553;-62
2023/10/12 11:24:22;;;;;;;10.15;1.88;;;16.00;1.00;;;;;;5048183;28;20052;-62
2023/10/12 11:26:52;;;;;;;6.07;1.48;;;15.90;1.00;;;;;;5080356;28;20095;-63
2023/10/12 11:29:18;;;;;;;10.93;1.23;;;16.00;16.40;;;;;;5048186;28;20052;-62
2023/10/12 11:32:08;;;;;;;8.50;0.90;;;16.10;1.00;;;;;;5051678;28;20159;-62
2023/10/12 11:34:55;;;;;;;6.32;1.00;;;16.00;1.00;;;;;;5051058;28;20064;-63
2023/10/12 11:37:23;;;;;;;4.13;1.02;;;15.90;1.00;;;;;;5046562;28;20052;-62
2023/10/12 11:39:50;;;;;;;6.72;1.27;;;15.90;1.00;;;;;;5050787;28;20515;-62
2023/10/12 11:42:17;;;;;;;3.28;1.08;;;15.80;1.00;;;;;;5079201;28;20507;-63
2023/10/12 11:44:45;;;;;;;5.75;1.20;;;15.80;1.00;;;;;;5080598;28;20041;-64
2023/10/12 11:47:37;;;;;;;10.80;1.83;;;15.60;1.00;;;;;;5048985;28;20111;-63
2023/10/12 11:50:09;;;;;;;5.63;1.30;;;15.70;1.00;;;;;;5062657;28;20040;-63
2023/10/12 11:52:37;;;;;;;5.95;1.30;;;15.50;1.00;;;;;;5048950;28;20072;-64
2023/10/12 11:55:21;;;;;;;3.85;1.20;;;15.40;1.00;;;;;;5048463;28;20490;-63
2023/10/12 11:57:59;;;;;;;8.77;1.92;;;15.40;1.00;;;;;;5048020;28;20045;-63
2023/10/12 12:00:37;;;;;;;8.50;1.90;;;15.30;1.00;;;;;;5052475;28;20060;-63
2023/10/12 12:03:08;;;;;;;6.57;1.20;;;15.40;1.00;;;;;;5055996;28;20396;-63
2023/10/12 12:05:36;;;;;;;8.38;1.30;;;15.40;1.00;;;;;;5046257;28;20048;-63
2023/10/12 12:08:14;;;;;;;3.17;1.02;;;15.40;1.00;;;;;;5046946;28;20052;-63
2023/10/12 12:11:03;;;;;;;4.97;0.90;;;15.30;1.00;;;;;;5047860;28;20932;-63
2023/10/12 12:13:27;;;;;;;6.80;1.10;;;15.20;1.00;;;;;;5036830;28;20127;-63
2023/10/12 12:15:55;;;;;;;7.50;1.23;;;15.20;1.00;;;;;;5048751;28;20621;-63
2023/10/12 12:18:21;;;;;;;4.93;0.95;;;15.20;1.00;;;;;;5033715;28;20052;-63
2023/10/12 12:20:49;;;;;;;7.88;1.25;;;15.20;1.00;;;;;;5053682;28;20063;-63
2023/10/12 12:23:42;;;;;;;3.22;1.00;;;15.30;1.00;;;;;;5046418;28;20127;-63
2023/10/12 12:26:09;;;;;;;12.68;2.13;;;15.30;1.00;;;;;;5048750;28;20068;-67
2023/10/12 12:28:45;;;;;;;5.43;1.00;;;15.30;1.00;;;;;;5051670;28;20068;-63
2023/10/12 12:31:15;;;;;;;3.38;1.00;;;15.20;1.00;;;;;;5046162;28;20135;-63
2023/10/12 12:33:45;;;;;;;6.15;1.40;;;15.20;15.40;;;;;;5045907;28;20068;-63
2023/10/12 12:36:21;;;;;;;6.53;1.20;;;15.20;14.40;;;;;;5080172;28;20053;-63
2023/10/12 12:38:51;;;;;;;4.93;1.00;;;15.20;14.70;;;;;;5071580;28;20064;-63
2023/10/12 12:41:23;;;;;;;4.50;1.15;;;15.20;2.90;;;;;;5051605;28;20103;-63
2023/10/12 12:43:53;;;;;;;3.35;0.90;;;15.20;10.10;;;;;;5055576;28;20522;-64
2023/10/12 12:46:19;;;;;;;4.47;1.17;;;15.20;13.60;;;;;;5061569;28;20498;-63
2023/10/12 12:48:50;;;;;;;6.25;1.15;;;15.20;1.00;;;;;;5079246;28;20037;-63
2023/10/12 12:51:17;;;;;;;6.50;1.23;;;15.20;1.00;;;;;;5062076;28;20403;-64
2023/10/12 12:53:47;;;;;;;11.48;1.55;;;15.20;6.50;;;;;;5065523;28;20047;-63
2023/10/12 12:56:14;;;;;;;4.22;1.15;;;15.20;8.70;;;;;;5063266;28;20556;-63
2023/10/12 12:58:46;;;;;;;8.05;1.30;;;15.30;6.70;;;;;;5049574;28;20036;-63
2023/10/12 13:01:23;;;;;;;4.32;0.88;;;15.30;14.10;;;;;;5047753;28;20045;-65
2023/10/12 13:03:55;;;;;;;3.58;0.93;;;15.30;20.40;;;;;;5043237;28;20624;-63
2023/10/12 13:06:22;;;;;;;6.90;1.35;;;15.30;17.70;;;;;;5047208;28;20434;-63
2023/10/12 13:08:48;;;;;;;8.63;1.08;;;15.30;15.80;;;;;;5046603;28;20045;-63
2023/10/12 13:11:21;;;;;;;4.15;0.80;;;15.30;20.10;;;;;;5046785;28;20037;-68
2023/10/12 13:13:50;;;;;;;8.73;1.20;;;15.40;22.50;;;;;;5047335;28;20052;-63
2023/10/12 13:16:16;;;;;;;4.03;1.17;;;15.40;23.60;;;;;;5045679;28;20045;-63
2023/10/12 13:18:48;;;;;;;5.90;1.65;;;15.40;26.20;;;;;;5047949;28;20032;-63
2023/10/12 13:21:14;;;;;;;3.95;1.15;;;15.40;9.90;;;;;;5058213;28;20053;-64
2023/10/12 13:23:45;;;;;;;5.70;1.00;;;15.40;15.60;;;;;;5026918;28;20056;-63
2023/10/12 13:26:12;;;;;;;5.70;1.30;;;15.40;11.60;;;;;;5046172;28;20048;-63
2023/10/12 13:28:41;;;;;;;5.28;1.35;;;15.40;13.90;;;;;;5046394;28;20048;-63
2023/10/12 13:31:10;;;;;;;4.32;1.15;;;15.40;14.60;;;;;;5047782;28;20041;-63
2023/10/12 13:33:38;;;;;;;6.93;1.57;;;15.40;25.70;;;;;;5076279;28;20049;-63
2023/10/12 13:36:04;;;;;;;7.82;2.10;;;15.40;24.20;;;;;;5053235;28;20045;-63
2023/10/12 13:38:34;;;;;;;5.32;1.00;;;15.40;23.40;;;;;;5054167;28;20099;-63
2023/10/12 13:41:01;;;;;;;11.05;1.10;;;15.50;20.40;;;;;;5054832;28;20037;-63
2023/10/12 13:43:30;;;;;;;3.97;0.90;;;15.40;16.90;;;;;;5057473;28;20048;-63
2023/10/12 13:45:57;;;;;;;4.72;0.82;;;15.40;18.40;;;;;;5059486;28;20048;-63
2023/10/12 13:48:27;;;;;;;5.03;1.30;;;15.30;19.70;;;;;;5063999;28;20054;-63
2023/10/12 13:51:04;;;;;;;2.78;0.93;;;15.30;19.00;;;;;;5080449;28;20041;-63
2023/10/12 13:53:36;;;;;;;6.70;1.42;;;15.30;41.50;;;;;;5062143;28;20555;-63
2023/10/12 13:56:08;;;;;;;7.68;1.33;;;15.30;42.70;;;;;;5048810;28;20068;-63
2023/10/12 13:58:38;;;;;;;5.05;1.15;;;15.30;36.70;;;;;;5050351;28;20334;-63
2023/10/12 14:01:13;;;;;;;4.63;0.98;;;15.30;38.00;;;;;;5043803;28;20502;-63
2023/10/12 14:03:41;;;;;;;9.55;2.03;;;15.30;38.90;;;;;;5059329;28;20044;-64
2023/10/12 14:06:07;;;;;;;2.90;1.08;;;15.30;31.60;;;;;;5062993;28;20067;-64
2023/10/12 14:08:36;;;;;;;8.93;1.92;;;15.30;24.80;;;;;;5048892;28;20510;-63
2023/10/12 14:11:06;;;;;;;6.90;1.27;;;15.20;24.60;;;;;;5051346;28;20045;-63
2023/10/12 14:13:35;;;;;;;7.20;1.08;;;15.20;20.00;;;;;;5060083;28;20036;-63
2023/10/12 14:16:01;;;;;;;5.43;1.60;;;15.10;22.70;;;;;;5082467;28;20129;-63
2023/10/12 14:18:30;;;;;;;2.90;0.93;;;15.10;22.70;;;;;;5046533;28;20073;-63
2023/10/12 14:20:56;;;;;;;3.42;1.13;;;15.10;24.20;;;;;;5081044;28;20491;-63
2023/10/12 14:23:26;;;;;;;7.10;1.10;;;15.00;39.30;;;;;;5058637;28;20075;-63
2023/10/12 14:25:54;;;;;;;5.05;0.73;;;15.00;36.30;;;;;;5056939;28;20045;-63
2023/10/12 14:28:20;;;;;;;5.40;1.05;;;15.00;37.80;;;;;;5059174;28;20037;-63
2023/10/12 14:30:50;;;;;;;3.13;0.93;;;15.00;42.80;;;;;;5048652;28;20045;-63
2023/10/12 14:33:19;;;;;;;3.72;0.80;;;15.00;42.40;;;;;;5051645;28;20459;-63
2023/10/12 14:35:45;;;;;;;6.95;1.00;;;15.00;39.20;;;;;;5059802;28;20088;-63
2023/10/12 14:38:14;;;;;;;8.75;1.60;;;15.00;37.10;;;;;;5050540;28;20056;-63
2023/10/12 14:40:42;;;;;;;3.90;0.97;;;15.10;35.40;;;;;;5048559;28;20048;-63
2023/10/12 14:43:12;;;;;;;5.15;1.05;;;15.10;34.20;;;;;;5055945;28;20366;-63
2023/10/12 14:45:49;;;;;;;4.10;0.90;;;15.10;31.80;;;;;;5053893;28;20037;-63
2023/10/12 14:48:18;;;;;;;4.82;1.20;;;15.10;31.80;;;;;;5048148;28;20406;-63
2023/10/12 14:50:49;;;;;;;8.15;2.08;;;15.10;31.30;;;;;;5057527;28;20398;-63
2023/10/12 14:53:21;;;;;;;4.93;1.33;;;15.10;27.30;;;;;;5054783;28;20379;-63
2023/10/12 14:55:51;;;;;;;7.43;1.20;;;15.00;25.60;;;;;;5048179;28;20037;-64
2023/10/12 14:58:18;;;;;;;7.43;1.63;;;15.00;18.10;;;;;;5047266;28;20126;-62
2023/10/12 15:00:44;;;;;;;6.45;1.27;;;14.90;21.20;;;;;;5037337;28;20399;-63
2023/10/12 15:03:11;;;;;;;11.77;1.45;;;14.90;26.20;;;;;;5057743;28;20060;-66
2023/10/12 15:05:37;;;;;;;6.25;1.25;;;14.90;30.00;;;;;;5061099;28;20067;-73
2023/10/12 15:08:07;;;;;;;4.13;1.00;;;15.00;28.50;;;;;;5058498;28;20040;-63
2023/10/12 15:10:40;;;;;;;;;;;14.90;25.40;;;;;;5048566;28;20048;-66